Time;durP1;ratioP1;P1;durP2;ratioP2;P2;SDS_P1;SDS_P2;PMS_P1;PMS_P2;Temp;Humidity;BMP_temperature;BMP_pressure;BME280_temperature;BME280_humidity;BME280_pressure;Samples;Min_cycle;Max_cycle;Signal;HPM_P1;HPM_P2
2023/01/17 00:01:27;;;;;;;25.50;15.00;;;;;;;4.48;82.35;97557.81;131087;1253;107549;-72
2023/01/17 00:11:34;;;;;;;16.60;10.60;;;;;;;4.47;82.31;97545.10;130478;1258;108117;-72
2023/01/17 00:14:40;;;;;;;32.50;19.20;;;;;;;4.47;82.28;97548.60;130524;1259;107365;-72
2023/01/17 00:17:45;;;;;;;19.40;12.40;;;;;;;4.49;82.38;97540.55;131108;1252;107480;-72
2023/01/17 01:33:52;;;;;;;18.10;11.90;;;;;;;4.74;83.30;97480.83;131224;1253;107514;-72
2023/01/17 01:36:57;;;;;;;18.60;11.60;;;;;;;4.73;83.46;97472.98;131168;1251;107392;-71
2023/01/17 01:40:03;;;;;;;16.30;10.80;;;;;;;4.75;83.50;97463.33;131364;1248;106643;-72
2023/01/17 01:43:13;;;;;;;15.50;10.90;;;;;;;4.75;83.25;97458.00;131260;1252;108641;-72
2023/01/17 01:46:24;;;;;;;16.80;10.90;;;;;;;4.73;83.33;97450.79;131306;1252;108674;-72
2023/01/17 01:49:30;;;;;;;17.20;11.10;;;;;;;4.74;83.30;97444.94;131369;1254;107551;-71
2023/01/17 01:52:40;;;;;;;20.70;12.30;;;;;;;4.74;83.49;97442.06;131228;1252;107446;-72
2023/01/17 01:55:49;;;;;;;17.80;12.00;;;;;;;4.70;83.40;97442.30;131119;1253;108622;-73
2023/01/17 01:58:57;;;;;;;19.90;11.80;;;;;;;4.68;83.50;97442.23;131417;1248;107524;-72
2023/01/17 02:02:02;;;;;;;17.50;10.60;;;;;;;4.70;83.49;97435.14;131380;1253;107503;-71
2023/01/17 02:05:10;;;;;;;16.10;11.00;;;;;;;4.73;83.62;97429.53;131230;1254;108412;-72
2023/01/17 02:08:19;;;;;;;18.10;11.60;;;;;;;4.77;83.69;97426.58;131085;1252;108471;-72
2023/01/17 02:11:26;;;;;;;19.30;11.30;;;;;;;4.81;83.72;97429.24;131044;1252;107505;-72
2023/01/17 02:14:32;;;;;;;15.40;10.50;;;;;;;4.82;83.68;97426.34;131143;1253;107861;-72
2023/01/17 02:17:47;;;;;;;18.80;11.00;;;;;;;4.82;83.58;97424.19;131056;1253;107460;-71
2023/01/17 02:21:06;;;;;;;16.60;10.80;;;;;;;4.84;83.65;97426.11;131277;1252;107516;-71
2023/01/17 02:24:40;;;;;;;16.70;11.30;;;;;;;4.83;83.71;97419.60;131254;1253;108959;-72
2023/01/17 02:28:02;;;;;;;15.60;10.20;;;;;;;4.80;83.68;97413.95;131248;1253;107248;-72
2023/01/17 02:31:09;;;;;;;;;;;;;;;4.75;83.89;97406.75;131384;1252;107718;-71
2023/01/17 02:34:21;;;;;;;18.60;11.80;;;;;;;4.75;84.04;97410.09;131357;1261;107423;-72
2023/01/17 02:37:28;;;;;;;;;;;;;;;4.79;83.91;97410.13;131130;1261;107478;-72
2023/01/17 02:40:39;;;;;;;42.50;27.40;;;;;;;4.86;83.92;97407.33;131250;1252;107524;-71
2023/01/17 02:43:45;;;;;;;31.10;20.30;;;;;;;4.91;83.88;97408.77;131061;1252;107456;-73
2023/01/17 02:46:53;;;;;;;35.60;19.10;;;;;;;4.94;83.92;97414.52;130930;1252;240860;-72
2023/01/17 02:50:04;;;;;;;20.80;13.00;;;;;;;4.96;83.80;97413.16;131176;1261;107442;-72
2023/01/17 02:53:23;;;;;;;23.70;14.70;;;;;;;4.96;83.88;97412.17;131112;1255;107640;-72
2023/01/17 02:56:43;;;;;;;27.10;16.20;;;;;;;4.92;83.84;97417.14;131333;1253;107344;-72
2023/01/17 02:59:59;;;;;;;26.00;14.40;;;;;;;4.88;83.86;97417.34;131100;1252;107486;-72
2023/01/17 03:03:16;;;;;;;21.50;12.10;;;;;;;4.83;84.04;97410.34;131099;1252;107333;-72
2023/01/17 03:06:27;;;;;;;24.90;13.90;;;;;;;4.80;83.93;97406.72;131297;1253;107387;-71
2023/01/17 03:09:34;;;;;;;23.30;13.40;;;;;;;4.77;83.94;97401.77;131279;1253;107475;-72
2023/01/17 03:12:40;;;;;;;22.10;13.10;;;;;;;4.78;84.00;97390.56;131306;1254;107523;-72
2023/01/17 03:15:46;;;;;;;20.20;12.50;;;;;;;4.80;83.93;97394.83;131203;1261;107407;-72
2023/01/17 03:18:52;;;;;;;22.70;13.70;;;;;;;4.78;84.05;97394.92;131284;1254;107387;-72
2023/01/17 03:21:58;;;;;;;27.60;15.80;;;;;;;4.78;84.00;97394.07;131132;1252;106474;-72
2023/01/17 03:25:04;;;;;;;29.50;16.60;;;;;;;4.77;84.02;97395.44;131215;1253;107515;-72
2023/01/17 03:28:09;;;;;;;33.20;17.70;;;;;;;4.74;84.04;97397.36;131336;1253;107514;-72
2023/01/17 03:31:18;;;;;;;33.40;18.00;;;;;;;4.69;84.00;97392.43;131257;1252;107476;-72
2023/01/17 03:34:24;;;;;;;23.90;14.00;;;;;;;4.64;83.99;97393.71;131108;1261;107506;-71
2023/01/17 03:37:30;;;;;;;15.80;9.30;;;;;;;4.63;83.91;97396.70;131121;1256;107492;-71
2023/01/17 03:40:36;;;;;;;21.40;12.80;;;;;;;4.64;84.23;97390.10;131336;1253;107360;-72
2023/01/17 03:43:41;;;;;;;19.50;11.70;;;;;;;4.64;84.11;97388.07;131253;1263;107603;-73
2023/01/17 03:46:47;;;;;;;29.20;16.80;;;;;;;4.66;84.03;97389.88;131219;1256;108058;-73
2023/01/17 03:49:52;;;;;;;25.00;14.20;;;;;;;4.65;84.13;97386.45;131115;1255;107642;-73
2023/01/17 03:52:58;;;;;;;23.90;14.40;;;;;;;4.61;84.02;97384.94;131055;1263;107270;-73
2023/01/17 03:56:04;;;;;;;20.00;11.20;;;;;;;4.58;84.10;97385.03;131034;1255;107579;-73
2023/01/17 03:59:10;;;;;;;25.80;14.00;;;;;;;4.54;84.14;97385.47;131110;1256;107523;-73
2023/01/17 04:02:16;;;;;;;17.50;9.90;;;;;;;4.51;84.03;97384.70;131189;1263;108466;-73
2023/01/17 04:05:21;;;;;;;19.10;11.30;;;;;;;4.51;84.04;97383.73;131168;1256;109399;-72
2023/01/17 04:08:27;;;;;;;24.60;14.60;;;;;;;4.53;84.11;97382.65;131175;1263;107528;-70
2023/01/17 04:11:33;;;;;;;18.20;10.50;;;;;;;4.52;84.14;97376.88;131246;1254;106312;-71
2023/01/17 04:14:39;;;;;;;15.70;10.10;;;;;;;4.50;84.15;97382.30;131111;1254;107600;-72
2023/01/17 04:17:45;;;;;;;19.40;11.60;;;;;;;4.45;84.07;97383.70;131147;1255;107410;-73
2023/01/17 04:20:51;;;;;;;22.10;13.10;;;;;;;4.41;84.11;97383.15;131206;1261;106600;-72
2023/01/17 04:23:57;;;;;;;16.90;10.00;;;;;;;4.37;84.13;97387.41;131255;1263;107275;-72
2023/01/17 04:27:03;;;;;;;15.30;9.10;;;;;;;4.31;84.03;97387.84;131093;1260;107424;-72
2023/01/17 04:30:11;;;;;;;12.60;7.90;;;;;;;4.27;84.15;97386.27;131232;1254;107395;-72
2023/01/17 04:33:18;;;;;;;13.20;8.90;;;;;;;4.23;83.96;97388.66;131222;1263;108678;-72
2023/01/17 04:36:23;;;;;;;11.40;8.00;;;;;;;4.21;83.98;97393.09;131452;1254;107749;-73
2023/01/17 04:39:29;;;;;;;14.00;8.30;;;;;;;4.19;83.92;97399.48;131224;1254;107527;-72
2023/01/17 04:42:34;;;;;;;14.90;9.50;;;;;;;4.18;84.12;97404.19;131081;1248;106530;-72
2023/01/17 04:45:40;;;;;;;15.80;10.00;;;;;;;4.17;84.00;97401.70;131173;1258;107458;-72
2023/01/17 04:48:46;;;;;;;13.90;8.90;;;;;;;4.12;83.94;97398.63;131101;1254;107379;-72
2023/01/17 04:51:51;;;;;;;13.10;7.80;;;;;;;4.06;84.03;97396.80;131171;1253;107313;-72
2023/01/17 04:54:57;;;;;;;10.90;7.40;;;;;;;4.03;83.97;97403.14;131208;1254;106547;-74
2023/01/17 04:58:02;;;;;;;11.80;7.90;;;;;;;4.01;83.98;97403.63;131378;1255;107225;-71
2023/01/17 05:01:09;;;;;;;12.90;7.80;;;;;;;4.00;83.92;97402.39;131292;1262;107287;-72
2023/01/17 05:04:14;;;;;;;12.80;7.80;;;;;;;3.97;83.98;97398.86;131216;1255;107606;-73
2023/01/17 05:07:20;;;;;;;13.70;8.10;;;;;;;3.91;83.81;97395.24;131120;1252;107411;-72
2023/01/17 05:10:26;;;;;;;13.70;9.10;;;;;;;3.84;83.80;97398.56;131111;1248;108391;-73
2023/01/17 05:13:32;;;;;;;14.10;8.50;;;;;;;3.75;83.98;97401.75;131403;1254;107355;-74
2023/01/17 05:16:37;;;;;;;15.50;9.50;;;;;;;3.67;84.06;97401.59;131264;1254;107533;-73
2023/01/17 05:19:43;;;;;;;15.50;9.20;;;;;;;3.60;84.09;97397.50;131084;1254;107250;-72
2023/01/17 05:22:54;;;;;;;13.70;8.80;;;;;;;3.57;84.15;97401.23;131395;1253;106010;-72
2023/01/17 05:26:00;;;;;;;16.20;10.40;;;;;;;3.54;84.14;97398.15;131219;1254;107416;-73
2023/01/17 05:29:05;;;;;;;16.60;10.40;;;;;;;3.51;84.00;97404.96;131393;1261;107509;-73
2023/01/17 05:32:11;;;;;;;18.00;11.80;;;;;;;3.49;84.21;97404.36;131387;1253;107365;-72
2023/01/17 05:35:18;;;;;;;17.40;11.10;;;;;;;3.46;84.13;97403.00;131476;1253;107532;-72
2023/01/17 05:38:24;;;;;;;16.70;11.20;;;;;;;3.42;83.85;97402.70;131381;1251;107444;-73
2023/01/17 05:41:29;;;;;;;17.80;11.00;;;;;;;3.37;84.15;97408.41;131379;1248;107609;-72
2023/01/17 05:44:34;;;;;;;22.70;11.80;;;;;;;3.30;84.17;97413.94;131392;1251;107529;-70
2023/01/17 05:47:40;;;;;;;18.50;11.10;;;;;;;3.25;84.20;97410.69;131364;1253;107505;-74
2023/01/17 05:50:46;;;;;;;15.20;8.90;;;;;;;3.22;84.25;97416.46;131488;1257;107276;-72
2023/01/17 05:53:52;;;;;;;15.30;9.20;;;;;;;3.20;84.27;97407.73;131332;1253;107499;-72
2023/01/17 05:56:57;;;;;;;13.80;9.30;;;;;;;3.20;84.33;97405.13;131230;1253;106841;-71
2023/01/17 06:00:04;;;;;;;14.70;8.90;;;;;;;3.17;84.25;97398.55;131375;1253;107504;-76
2023/01/17 06:03:12;;;;;;;14.90;9.30;;;;;;;3.14;84.31;97404.77;131538;1251;107524;-73
2023/01/17 06:06:18;;;;;;;15.50;10.00;;;;;;;3.09;84.24;97412.55;131177;1256;107343;-73
2023/01/17 06:09:23;;;;;;;59.90;27.10;;;;;;;3.04;84.40;97428.69;131101;1254;107484;-72
2023/01/17 06:12:29;;;;;;;18.20;10.50;;;;;;;2.98;84.18;97441.46;131122;1253;107519;-72
2023/01/17 06:15:36;;;;;;;24.90;14.00;;;;;;;2.96;84.47;97442.10;131113;1253;106682;-74
2023/01/17 06:18:42;;;;;;;20.00;11.50;;;;;;;2.96;84.60;97447.66;131091;1252;107484;-72
2023/01/17 06:21:48;;;;;;;20.70;12.20;;;;;;;2.98;84.41;97444.48;131206;1248;108344;-72
2023/01/17 06:24:53;;;;;;;19.40;12.30;;;;;;;2.99;84.53;97443.38;131410;1248;107505;-74
2023/01/17 06:27:58;;;;;;;18.70;11.80;;;;;;;2.98;84.58;97443.77;131180;1253;107585;-73
2023/01/17 06:31:08;;;;;;;54.90;29.20;;;;;;;2.95;84.54;97452.83;131213;1254;107505;-72
2023/01/17 06:34:14;;;;;;;21.70;12.40;;;;;;;2.92;84.50;97457.10;131105;1248;107432;-73
2023/01/17 06:37:19;;;;;;;18.00;10.80;;;;;;;2.90;84.61;97459.13;131102;1248;105655;-73
2023/01/17 06:40:26;;;;;;;13.30;8.10;;;;;;;2.88;84.70;97466.18;131226;1252;107563;-72
2023/01/17 06:43:33;;;;;;;18.00;10.30;;;;;;;2.90;84.53;97463.96;131078;1254;107494;-73
2023/01/17 06:46:39;;;;;;;16.90;9.80;;;;;;;2.94;84.51;97462.45;131094;1248;107519;-74
2023/01/17 06:49:45;;;;;;;16.90;9.80;;;;;;;2.96;84.53;97467.54;131103;1248;107405;-78
2023/01/17 06:52:58;;;;;;;19.80;12.00;;;;;;;2.95;84.55;97463.94;131131;1252;106763;-78
2023/01/17 06:56:04;;;;;;;19.80;11.50;;;;;;;2.94;84.40;97467.08;131146;1248;107534;-78
2023/01/17 06:59:09;;;;;;;22.10;12.90;;;;;;;2.93;84.49;97468.02;131086;1254;107460;-79
2023/01/17 07:02:15;;;;;;;22.70;14.00;;;;;;;2.92;84.51;97467.27;131130;1252;107650;-78
2023/01/17 07:05:21;;;;;;;16.40;9.60;;;;;;;2.95;84.41;97466.20;131094;1256;107687;-78
2023/01/17 07:08:27;;;;;;;17.40;10.50;;;;;;;3.01;84.53;97470.88;131223;1261;107567;-77
2023/01/17 07:11:32;;;;;;;24.40;12.80;;;;;;;3.06;84.37;97470.06;131163;1261;105969;-78
2023/01/17 07:14:38;;;;;;;16.90;9.40;;;;;;;3.11;84.33;97465.53;131199;1251;107511;-77
2023/01/17 07:17:44;;;;;;;18.30;10.20;;;;;;;3.13;84.28;97467.51;131223;1247;108689;-77
2023/01/17 07:20:49;;;;;;;22.50;11.30;;;;;;;3.15;84.39;97468.71;131105;1247;109256;-78
2023/01/17 07:23:55;;;;;;;42.40;16.10;;;;;;;3.17;84.26;97469.73;131113;1252;107546;-78
2023/01/17 07:27:00;;;;;;;65.40;22.10;;;;;;;3.17;84.31;97473.78;131138;1254;107529;-78
2023/01/17 07:30:08;;;;;;;33.20;13.10;;;;;;;3.19;84.47;97473.45;131089;1263;107515;-78
2023/01/17 07:33:13;;;;;;;16.20;9.60;;;;;;;3.22;84.35;97472.45;131167;1253;108638;-77
2023/01/17 07:36:19;;;;;;;79.90;25.50;;;;;;;3.30;84.18;97476.49;131261;1263;107407;-78
2023/01/17 07:39:25;;;;;;;25.40;12.00;;;;;;;3.36;84.10;97485.96;131395;1248;107546;-78
2023/01/17 07:42:30;;;;;;;17.70;9.50;;;;;;;3.41;84.01;97489.83;131441;1264;108384;-78
2023/01/17 07:45:36;;;;;;;170.70;49.30;;;;;;;3.44;84.02;97497.05;131268;1248;107368;-78
2023/01/17 07:48:41;;;;;;;35.00;13.90;;;;;;;3.45;83.91;97505.11;131317;1248;107511;-78
2023/01/17 07:51:47;;;;;;;20.30;10.40;;;;;;;3.44;83.75;97507.92;131288;1248;107339;-78
2023/01/17 07:54:53;;;;;;;31.70;15.20;;;;;;;3.41;83.92;97513.67;131267;1260;107452;-78
2023/01/17 07:57:59;;;;;;;60.70;25.40;;;;;;;3.39;83.84;97508.73;131229;1251;108617;-79
2023/01/17 08:01:06;;;;;;;37.20;17.70;;;;;;;3.41;83.84;97508.11;131161;1248;107662;-79
2023/01/17 08:04:13;;;;;;;22.70;12.80;;;;;;;3.49;83.83;97515.11;131188;1254;107541;-79
2023/01/17 08:07:19;;;;;;;45.60;21.10;;;;;;;3.59;83.83;97510.13;131142;1247;107381;-78
2023/01/17 08:10:24;;;;;;;18.10;9.80;;;;;;;3.68;83.75;97508.84;131273;1252;107421;-80
2023/01/17 08:13:30;;;;;;;15.80;8.90;;;;;;;3.74;83.73;97506.41;131427;1253;107506;-78
2023/01/17 08:16:36;;;;;;;14.30;8.60;;;;;;;3.78;83.71;97501.74;131395;1253;107229;-77
2023/01/17 08:19:43;;;;;;;25.30;16.30;;;;;;;3.82;83.69;97502.30;131420;1248;107381;-78
2023/01/17 08:22:52;;;;;;;11.80;7.70;;;;;;;3.86;83.54;97501.73;131348;1253;108547;-79
2023/01/17 08:26:02;;;;;;;18.10;11.10;;;;;;;3.89;83.55;97502.54;131375;1251;106462;-78
2023/01/17 08:29:07;;;;;;;9.60;6.50;;;;;;;3.94;83.40;97503.09;131094;1252;108665;-79
2023/01/17 08:32:13;;;;;;;9.00;6.30;;;;;;;4.03;83.42;97505.14;131121;1254;107490;-77
2023/01/17 08:35:19;;;;;;;10.20;6.50;;;;;;;4.10;83.32;97502.94;131271;1248;107560;-79
2023/01/17 08:38:24;;;;;;;10.30;6.90;;;;;;;4.15;83.24;97502.73;131295;1251;107477;-77
2023/01/17 08:41:31;;;;;;;10.30;6.60;;;;;;;4.20;83.31;97503.04;131320;1260;107559;-77
2023/01/17 08:44:37;;;;;;;18.30;10.60;;;;;;;4.24;83.05;97502.23;131294;1248;108447;-77
2023/01/17 08:47:43;;;;;;;25.80;13.40;;;;;;;4.25;82.93;97505.60;131316;1247;107352;-77
2023/01/17 08:50:49;;;;;;;31.10;13.60;;;;;;;4.26;82.93;97506.14;131185;1248;107438;-78
2023/01/17 08:53:55;;;;;;;22.70;10.90;;;;;;;4.28;82.93;97509.90;131297;1254;108461;-78
2023/01/17 08:57:02;;;;;;;72.30;29.60;;;;;;;4.28;82.92;97513.89;131229;1248;107496;-79
2023/01/17 09:00:11;;;;;;;18.00;9.80;;;;;;;4.32;82.89;97515.88;131268;1247;107229;-78
2023/01/17 09:03:17;;;;;;;30.60;14.60;;;;;;;4.39;82.85;97518.13;131473;1251;106728;-78
2023/01/17 09:06:23;;;;;;;24.20;13.70;;;;;;;4.44;82.76;97520.41;131256;1253;107218;-77
2023/01/17 09:09:28;;;;;;;23.30;15.20;;;;;;;4.52;82.58;97525.27;131293;1247;109839;-77
2023/01/17 09:12:35;;;;;;;21.70;14.20;;;;;;;4.58;82.47;97526.90;131270;1248;107516;-78
2023/01/17 09:15:41;;;;;;;16.40;10.60;;;;;;;4.64;82.37;97529.95;131283;1251;106814;-79
2023/01/17 09:18:46;;;;;;;17.30;11.50;;;;;;;4.67;82.44;97529.30;131357;1251;107548;-79
2023/01/17 09:21:52;;;;;;;14.50;9.60;;;;;;;4.71;82.50;97528.83;131267;1264;107306;-77
2023/01/17 09:24:58;;;;;;;15.50;10.60;;;;;;;4.72;82.12;97525.23;131302;1248;106474;-78
2023/01/17 09:28:03;;;;;;;11.60;7.10;;;;;;;4.72;82.27;97529.29;131165;1264;107410;-79
2023/01/17 09:31:10;;;;;;;12.20;7.70;;;;;;;4.78;82.23;97526.48;131067;1248;108120;-77
2023/01/17 09:34:17;;;;;;;15.00;9.50;;;;;;;4.83;82.18;97524.67;131255;1252;108720;-77
2023/01/17 09:37:23;;;;;;;14.60;9.40;;;;;;;4.91;82.11;97528.98;131158;1248;105394;-77
2023/01/17 09:40:28;;;;;;;15.90;10.70;;;;;;;5.01;82.16;97527.30;131222;1264;106044;-79
2023/01/17 09:43:40;;;;;;;14.60;9.00;;;;;;;5.08;81.92;97525.62;131127;1263;107531;-78
2023/01/17 09:46:48;;;;;;;15.70;9.30;;;;;;;5.11;81.54;97523.23;131154;1254;107499;-77
2023/01/17 09:49:57;;;;;;;15.00;9.70;;;;;;;5.14;81.85;97526.95;131304;1253;107614;-77
2023/01/17 09:53:05;;;;;;;17.10;10.30;;;;;;;5.15;81.74;97528.92;131204;1248;107523;-78
2023/01/17 09:56:15;;;;;;;14.30;9.20;;;;;;;5.17;81.84;97532.97;131251;1251;107568;-78
2023/01/17 09:59:28;;;;;;;14.60;9.30;;;;;;;5.17;81.49;97541.63;131177;1253;107531;-78
2023/01/17 10:02:47;;;;;;;14.50;8.30;;;;;;;5.17;81.57;97546.87;131349;1248;107516;-78
2023/01/17 10:06:03;;;;;;;12.20;7.40;;;;;;;5.20;81.46;97550.73;131240;1252;107381;-78
2023/01/17 10:09:42;;;;;;;13.20;8.00;;;;;;;5.26;81.47;97547.55;131144;1252;107482;-78
2023/01/17 10:12:55;;;;;;;17.60;10.20;;;;;;;5.37;81.61;97546.83;131353;1253;108633;-78
2023/01/17 10:16:27;;;;;;;18.40;11.30;;;;;;;5.45;81.43;97545.57;131379;1252;107507;-78
2023/01/17 10:19:52;;;;;;;28.30;15.60;;;;;;;5.51;81.48;97551.83;131180;1248;107523;-78
2023/01/17 10:23:16;;;;;;;37.40;18.00;;;;;;;5.57;81.40;97548.86;131305;1253;107575;-78
2023/01/17 10:26:25;;;;;;;40.40;20.90;;;;;;;5.59;81.21;97549.83;131265;1253;109271;-77
2023/01/17 10:29:34;;;;;;;25.20;13.20;;;;;;;5.62;81.26;97551.97;131231;1248;107571;-78
2023/01/17 10:32:49;;;;;;;65.00;29.30;;;;;;;5.67;81.45;97548.36;131132;1248;107409;-78
2023/01/17 10:35:57;;;;;;;28.80;14.80;;;;;;;5.71;81.18;97546.89;131174;1252;107228;-78
2023/01/17 10:39:22;;;;;;;33.00;20.20;;;;;;;5.76;81.21;97550.96;131141;1254;107363;-78
2023/01/17 10:42:37;;;;;;;36.40;17.80;;;;;;;5.75;80.93;97559.55;131148;1252;107621;-77
2023/01/17 10:45:48;;;;;;;14.30;8.70;;;;;;;5.77;80.90;97553.27;131077;1254;107448;-77
2023/01/17 10:48:54;;;;;;;19.50;11.70;;;;;;;5.80;80.84;97553.58;131349;1250;107347;-77
2023/01/17 10:52:12;;;;;;;13.70;8.40;;;;;;;5.90;80.97;97551.66;131205;1248;107642;-77
2023/01/17 10:55:33;;;;;;;23.30;13.20;;;;;;;6.02;80.94;97550.82;131121;1253;107246;-78
2023/01/17 10:58:38;;;;;;;17.10;10.00;;;;;;;6.13;80.56;97550.80;131134;1260;107535;-77
2023/01/17 11:01:44;;;;;;;15.30;9.40;;;;;;;6.17;80.52;97553.15;131259;1253;106539;-77
2023/01/17 11:04:53;;;;;;;14.60;9.30;;;;;;;6.22;80.24;97558.84;131265;1251;106553;-77
2023/01/17 11:08:02;;;;;;;21.30;12.40;;;;;;;6.23;80.29;97560.89;131327;1251;106755;-78
2023/01/17 11:11:09;;;;;;;13.60;8.30;;;;;;;6.21;80.28;97559.49;131254;1251;107482;-78
2023/01/17 11:14:18;;;;;;;13.40;9.60;;;;;;;6.21;80.16;97561.65;131318;1251;107553;-77
2023/01/17 11:17:26;;;;;;;13.90;9.00;;;;;;;6.16;79.91;97560.64;131384;1246;107374;-77
2023/01/17 11:20:36;;;;;;;16.10;10.50;;;;;;;6.12;80.14;97561.70;131298;1251;107827;-77
2023/01/17 11:23:44;;;;;;;17.90;11.40;;;;;;;6.08;80.23;97568.18;131262;1251;108575;-77
2023/01/17 11:26:50;;;;;;;13.20;7.60;;;;;;;6.07;79.76;97572.00;131268;1263;107221;-77
2023/01/17 11:30:15;;;;;;;25.20;16.20;;;;;;;6.10;80.08;97576.80;131407;1251;107393;-77
2023/01/17 11:33:43;;;;;;;18.60;10.70;;;;;;;6.18;80.32;97576.09;131425;1251;107398;-77
2023/01/17 11:36:49;;;;;;;17.30;11.60;;;;;;;6.26;79.90;97575.92;131465;1251;107493;-77
2023/01/17 11:40:09;;;;;;;14.10;9.10;;;;;;;6.33;79.89;97577.44;131428;1251;107482;-78
2023/01/17 11:43:23;;;;;;;16.70;10.10;;;;;;;6.40;79.58;97580.17;131455;1251;106799;-77
2023/01/17 11:46:31;;;;;;;22.70;14.80;;;;;;;6.43;79.75;97577.40;131316;1251;107439;-77
2023/01/17 11:49:37;;;;;;;17.30;11.30;;;;;;;6.45;79.70;97575.17;131317;1251;107397;-77
2023/01/17 11:52:42;;;;;;;17.10;10.10;;;;;;;6.48;79.78;97573.80;131439;1251;107507;-77
2023/01/17 11:56:05;;;;;;;16.00;11.00;;;;;;;6.52;79.85;97574.97;131296;1250;107519;-77
2023/01/17 11:59:28;;;;;;;14.30;10.00;;;;;;;6.55;79.76;97576.82;131207;1248;107471;-77
2023/01/17 12:02:50;;;;;;;13.80;9.20;;;;;;;6.59;79.79;97581.92;131407;1248;106437;-76
2023/01/17 12:06:03;;;;;;;15.00;9.60;;;;;;;6.61;79.59;97581.67;131126;1252;107556;-77
2023/01/17 12:09:21;;;;;;;14.20;8.80;;;;;;;6.59;79.74;97579.67;131301;1263;108663;-77
2023/01/17 12:16:29;;;;;;;14.90;9.60;;;;;;;6.59;79.54;97575.47;131577;1251;107555;-78
2023/01/17 12:19:47;;;;;;;21.80;13.80;;;;;;;6.68;79.52;97575.65;131525;1252;107491;-78
2023/01/17 12:23:24;;;;;;;15.70;9.80;;;;;;;6.77;79.16;97580.80;131306;1252;106554;-78
2023/01/17 12:26:37;;;;;;;15.70;10.50;;;;;;;6.88;78.95;97584.91;131244;1247;107656;-79
2023/01/17 12:29:49;;;;;;;15.50;9.40;;;;;;;6.93;78.71;97581.70;131385;1251;107435;-78
2023/01/17 12:33:20;;;;;;;11.60;8.60;;;;;;;6.97;78.40;97582.77;131202;1252;107702;-78
2023/01/17 12:36:38;;;;;;;11.20;7.80;;;;;;;7.00;78.63;97586.97;131314;1251;107436;-77
2023/01/17 12:39:51;;;;;;;12.20;7.70;;;;;;;7.05;78.41;97588.88;131120;1252;108730;-78
2023/01/17 12:43:04;;;;;;;12.50;8.10;;;;;;;7.04;78.37;97594.25;131167;1247;108612;-77
2023/01/17 12:46:19;;;;;;;13.30;8.50;;;;;;;7.04;78.28;97592.90;131241;1247;106867;-77
2023/01/17 12:49:32;;;;;;;12.90;8.10;;;;;;;6.97;78.11;97597.60;131419;1247;107210;-77
2023/01/17 12:52:48;;;;;;;11.60;7.20;;;;;;;6.94;78.06;97596.48;131471;1247;107674;-78
2023/01/17 12:56:00;;;;;;;9.30;6.50;;;;;;;6.86;77.87;97594.08;131463;1254;107551;-78
2023/01/17 12:59:16;;;;;;;9.30;6.30;;;;;;;6.80;77.28;97597.77;131302;1251;107558;-77
2023/01/17 13:02:31;;;;;;;9.60;6.10;;;;;;;6.71;77.43;97594.82;131083;1251;107982;-78
2023/01/17 13:05:40;;;;;;;7.80;5.40;;;;;;;6.62;77.19;97598.39;131265;1252;108714;-78
2023/01/17 13:08:53;;;;;;;9.30;6.50;;;;;;;6.54;77.28;97595.84;131408;1248;107376;-78
2023/01/17 13:12:04;;;;;;;9.80;5.90;;;;;;;6.44;76.33;97592.67;131294;1248;107855;-77
2023/01/17 13:15:16;;;;;;;8.20;5.70;;;;;;;6.35;76.58;97590.80;131410;1254;108069;-77
2023/01/17 13:18:28;;;;;;;9.00;5.80;;;;;;;6.30;76.98;97589.15;131249;1248;108643;-78
2023/01/17 13:21:35;;;;;;;59.70;25.60;;;;;;;6.24;76.68;97588.25;131143;1248;108670;-77
2023/01/17 13:24:51;;;;;;;22.50;9.90;;;;;;;6.18;76.30;97595.33;131387;1250;107540;-77
2023/01/17 13:28:22;;;;;;;23.80;10.40;;;;;;;6.13;76.38;97597.40;131337;1252;107521;-77
2023/01/17 13:31:47;;;;;;;12.80;7.20;;;;;;;6.09;76.59;97601.05;131176;1252;107540;-77
2023/01/17 13:35:13;;;;;;;339.20;98.60;;;;;;;6.06;76.14;97603.69;131054;1253;107455;-78
2023/01/17 13:38:31;;;;;;;270.50;82.10;;;;;;;6.09;76.14;97606.89;131101;1248;107532;-78
2023/01/17 13:41:47;;;;;;;323.80;107.80;;;;;;;6.12;76.08;97609.89;131394;1247;107697;-77
2023/01/17 13:44:53;;;;;;;92.50;32.60;;;;;;;6.13;75.78;97611.24;131365;1253;106770;-77
2023/01/17 13:48:29;;;;;;;81.40;29.00;;;;;;;6.11;75.86;97602.42;131461;1252;107543;-77
2023/01/17 13:52:04;;;;;;;26.90;11.70;;;;;;;6.07;75.81;97600.36;131361;1252;108506;-77
2023/01/17 13:55:29;;;;;;;19.00;9.20;;;;;;;6.03;75.75;97603.28;131439;1252;107412;-77
2023/01/17 13:58:57;;;;;;;17.50;9.00;;;;;;;5.97;75.86;97607.54;131300;1247;107283;-77
2023/01/17 14:02:03;;;;;;;23.30;12.50;;;;;;;5.90;75.96;97611.28;131440;1251;107468;-77
2023/01/17 14:05:12;;;;;;;20.60;12.00;;;;;;;5.85;76.18;97614.40;131475;1247;107353;-78
2023/01/17 14:08:20;;;;;;;16.10;9.80;;;;;;;5.80;76.21;97621.71;131305;1252;107501;-77
2023/01/17 14:11:27;;;;;;;20.40;12.00;;;;;;;5.74;76.34;97626.52;131371;1249;107234;-77
2023/01/17 14:14:55;;;;;;;24.20;13.70;;;;;;;5.68;76.21;97640.31;131332;1251;107420;-77
2023/01/17 14:18:02;;;;;;;17.20;10.10;;;;;;;5.61;76.31;97652.77;131297;1247;107674;-78
2023/01/17 14:21:20;;;;;;;20.00;11.50;;;;;;;5.54;76.52;97656.59;131416;1247;107366;-77
2023/01/17 14:24:25;;;;;;;16.10;9.50;;;;;;;5.45;76.42;97659.73;131483;1248;107380;-77
2023/01/17 14:27:34;;;;;;;14.70;9.10;;;;;;;5.37;76.48;97657.96;131450;1251;107536;-77
2023/01/17 14:30:40;;;;;;;13.70;8.90;;;;;;;5.29;76.36;97661.52;131086;1248;107528;-77
2023/01/17 14:33:46;;;;;;;14.10;8.20;;;;;;;5.26;76.32;97662.61;131115;1252;107643;-77
2023/01/17 14:36:52;;;;;;;13.30;8.60;;;;;;;5.25;76.37;97669.23;131197;1250;106509;-77
2023/01/17 14:39:57;;;;;;;13.70;8.80;;;;;;;5.21;76.24;97678.99;131321;1254;107228;-78
2023/01/17 14:43:09;;;;;;;13.80;8.30;;;;;;;5.18;76.36;97682.97;131353;1252;107519;-77
2023/01/17 14:46:23;;;;;;;13.50;9.00;;;;;;;5.10;76.28;97687.17;131131;1252;193294;-77
2023/01/17 14:49:29;;;;;;;13.90;8.70;;;;;;;5.03;76.34;97687.30;131242;1253;108410;-77
2023/01/17 14:52:34;;;;;;;15.80;9.40;;;;;;;4.93;76.32;97688.50;131070;1252;107582;-79
2023/01/17 14:55:48;;;;;;;38.00;23.90;;;;;;;4.82;76.42;97687.29;131230;1252;107533;-78
2023/01/17 14:59:13;;;;;;;30.90;21.20;;;;;;;4.72;76.58;97690.05;131242;1248;107562;-79
2023/01/17 15:02:19;;;;;;;18.90;11.60;;;;;;;4.61;76.43;97695.59;131229;1252;107448;-77
2023/01/17 15:05:27;;;;;;;16.70;10.60;;;;;;;4.51;76.43;97706.27;131082;1252;107643;-77
2023/01/17 15:08:35;;;;;;;15.90;9.90;;;;;;;4.39;76.32;97708.86;131250;1248;107519;-77
2023/01/17 15:11:42;;;;;;;15.70;10.10;;;;;;;4.25;76.46;97711.34;131265;1248;107584;-78
2023/01/17 15:14:48;;;;;;;17.10;9.50;;;;;;;4.13;76.53;97723.76;131281;1248;108103;-78
2023/01/17 15:18:07;;;;;;;13.10;8.00;;;;;;;4.02;76.63;97732.20;131376;1254;107198;-78
2023/01/17 15:21:16;;;;;;;17.10;8.40;;;;;;;3.91;76.72;97742.75;131191;1253;107516;-78
2023/01/17 15:24:26;;;;;;;11.80;6.70;;;;;;;3.84;76.60;97760.61;131396;1248;108667;-77
2023/01/17 15:27:32;;;;;;;16.90;8.90;;;;;;;3.78;76.53;97779.77;131150;1252;107520;-78
2023/01/17 15:30:38;;;;;;;19.00;9.50;;;;;;;3.73;76.49;97794.23;131069;1252;107409;-77
2023/01/17 15:33:46;;;;;;;20.40;10.20;;;;;;;3.66;76.47;97798.87;131197;1248;108666;-77
2023/01/17 15:36:57;;;;;;;18.20;10.40;;;;;;;3.59;76.33;97799.84;131268;1252;106738;-78
2023/01/17 15:40:15;;;;;;;33.90;14.30;;;;;;;3.53;76.55;97802.48;131360;1260;107707;-77
2023/01/17 15:43:27;;;;;;;29.60;13.40;;;;;;;3.49;76.63;97811.10;131256;1252;107443;-78
2023/01/17 15:46:41;;;;;;;26.50;13.60;;;;;;;3.43;76.61;97805.71;131297;1248;107451;-78
2023/01/17 15:49:53;;;;;;;35.30;15.40;;;;;;;3.41;76.67;97813.59;131371;1251;107493;-77